createdAt,value
2022-09-16T00:01:05.111Z,99.99
2022-09-16T00:06:07.223Z,99.99
2022-09-16T00:11:07.351Z,99.99
2022-09-16T00:16:07.503Z,99.99
2022-09-16T00:21:06.655Z,99.99
2022-09-16T00:26:07.761Z,99.99
2022-09-16T00:31:08.906Z,99.99
2022-09-16T00:36:11.001Z,99.99
2022-09-16T00:41:10.102Z,99.99
2022-09-16T00:46:12.362Z,99.99
2022-09-16T00:51:11.460Z,99.99
2022-09-16T00:56:12.568Z,99.99
2022-09-16T01:01:13.795Z,99.99
2022-09-16T01:06:14.951Z,99.99
2022-09-16T01:11:16.057Z,99.99
2022-09-16T01:16:17.172Z,99.99
2022-09-16T01:21:18.275Z,99.76
2022-09-16T01:26:19.356Z,98.03
2022-09-16T01:31:20.505Z,99.55
2022-09-16T01:36:22.625Z,99.99
2022-09-16T01:41:21.733Z,99.99
2022-09-16T01:46:23.035Z,99.99
2022-09-16T01:51:24.162Z,99.99
2022-09-16T01:56:25.292Z,99.99
2022-09-16T02:01:27.435Z,99.99
2022-09-16T02:06:28.508Z,99.99
2022-09-16T02:11:27.592Z,99.99
2022-09-16T02:16:30.745Z,99.99
2022-09-16T02:21:30.827Z,99.99
2022-09-16T02:26:29.968Z,99.99
2022-09-16T02:31:31.098Z,99.99
2022-09-16T02:36:32.194Z,99.99
2022-09-16T02:41:35.304Z,99.99
2022-09-16T02:46:35.455Z,99.99
2022-09-16T02:51:34.532Z,99.99
2022-09-16T02:56:35.611Z,99.99
2022-09-16T03:01:36.726Z,99.99
2022-09-16T03:06:37.805Z,99.99
2022-09-16T03:11:38.901Z,99.99
2022-09-16T03:16:45.380Z,99.99
2022-09-16T03:21:40.899Z,99.99
2022-09-16T03:26:42.007Z,99.99
2022-09-16T03:31:44.086Z,99.99
2022-09-16T03:36:43.182Z,99.99
2022-09-16T03:41:44.273Z,99.99
2022-09-16T03:46:45.375Z,99.99
2022-09-16T03:51:46.442Z,99.99
2022-09-16T03:56:48.547Z,99.99
2022-09-16T04:01:47.708Z,99.99
2022-09-16T04:06:49.825Z,99.99
2022-09-16T04:11:48.916Z,99.99
2022-09-16T04:16:50.037Z,99.99
2022-09-16T04:21:52.110Z,99.99
2022-09-16T04:26:51.221Z,99.99
2022-09-16T04:31:53.327Z,99.99
2022-09-16T04:36:52.453Z,99.99
2022-09-16T04:41:53.580Z,99.99
2022-09-16T04:46:54.654Z,99.99
2022-09-16T04:51:56.831Z,99.99
2022-09-16T04:56:55.902Z,99.99
2022-09-16T05:01:58.103Z,99.99
2022-09-16T05:06:58.233Z,99.99
2022-09-16T05:11:58.351Z,99.99
2022-09-16T05:16:57.449Z,99.99
2022-09-16T05:21:58.574Z,99.99
2022-09-16T05:26:59.726Z,99.99
2022-09-16T05:32:01.832Z,99.99
2022-09-16T05:37:01.250Z,99.99
2022-09-16T05:42:03.402Z,99.99
2022-09-16T05:47:03.678Z,99.99
2022-09-16T05:52:02.786Z,99.99
2022-09-16T05:57:07.007Z,99.99
2022-09-16T06:02:04.563Z,99.99
2022-09-16T06:07:05.682Z,99.99
2022-09-16T06:12:05.790Z,99.99
2022-09-16T06:17:05.880Z,99.99
2022-09-16T06:22:08.986Z,99.99
2022-09-16T06:27:08.163Z,99.99
2022-09-16T06:32:09.261Z,98.74
2022-09-16T06:37:11.350Z,98.29
2022-09-16T06:42:11.479Z,99.96
2022-09-16T06:47:11.584Z,99.99
2022-09-16T06:52:11.704Z,99.21
2022-09-16T06:57:12.282Z,94.51
2022-09-16T07:02:11.745Z,93.60
2022-09-16T07:07:13.831Z,94.93
2022-09-16T07:12:18.831Z,94.48
2022-09-16T07:17:13.891Z,92.78
2022-09-16T07:22:14.975Z,90.11
2022-09-16T07:27:17.082Z,88.66
2022-09-16T07:32:18.165Z,88.32
2022-09-16T07:37:19.282Z,85.82
2022-09-16T07:42:18.389Z,84.71
2022-09-16T07:47:22.352Z,87.82
2022-09-16T07:52:19.593Z,86.41
2022-09-16T07:57:20.655Z,88.82
2022-09-16T08:02:21.864Z,86.32
2022-09-16T08:07:25.017Z,86.79
2022-09-16T08:12:25.161Z,84.47
2022-09-16T08:17:25.333Z,85.11
2022-09-16T08:22:25.486Z,79.79
2022-09-16T08:27:26.623Z,84.69
2022-09-16T08:32:26.816Z,84.25
2022-09-16T08:37:25.890Z,85.90
2022-09-16T08:42:27.018Z,82.50
2022-09-16T08:47:29.198Z,79.87
2022-09-16T08:52:27.278Z,80.95
2022-09-16T08:57:29.432Z,81.49
2022-09-16T09:02:29.922Z,81.29
2022-09-16T09:07:29.209Z,82.36
2022-09-16T09:12:32.543Z,79.21
2022-09-16T09:17:30.245Z,78.56
2022-09-16T09:22:31.365Z,80.81
2022-09-16T09:27:32.463Z,77.39
2022-09-16T09:32:48.108Z,79.57
2022-09-16T09:37:33.558Z,76.72
2022-09-16T09:42:34.753Z,73.94
2022-09-16T09:47:35.860Z,74.44
2022-09-16T09:52:36.979Z,72.67
2022-09-16T09:57:38.151Z,73.71
2022-09-16T10:02:39.324Z,75.96
2022-09-16T10:07:40.431Z,75.90
2022-09-16T10:12:42.561Z,77.33
2022-09-16T10:17:46.577Z,74.71
2022-09-16T10:22:42.680Z,73.30
2022-09-16T10:27:41.818Z,72.80
2022-09-16T10:32:43.947Z,72.64
2022-09-16T10:37:45.064Z,70.23
2022-09-16T10:42:44.181Z,66.89
2022-09-16T10:52:46.336Z,64.98
2022-09-16T10:57:47.473Z,64.75
2022-09-16T11:02:48.587Z,64.72
2022-09-16T11:07:49.711Z,68.59
2022-09-16T11:12:50.868Z,63.18
2022-09-16T11:17:51.981Z,62.70
2022-09-16T11:22:53.097Z,65.33
2022-09-16T11:27:56.270Z,57.48
2022-09-16T11:32:56.991Z,60.01
2022-09-16T11:37:57.663Z,60.71
2022-09-16T11:42:57.803Z,62.01
2022-09-16T11:47:56.910Z,62.14
2022-09-16T11:53:04.053Z,64.58
2022-09-16T11:57:59.287Z,64.54
2022-09-16T12:02:58.511Z,71.47
2022-09-16T12:07:59.672Z,73.35
2022-09-16T12:13:00.778Z,75.20
2022-09-16T12:18:01.912Z,79.74
2022-09-16T12:23:05.035Z,80.15
2022-09-16T12:28:04.168Z,81.80
2022-09-16T12:33:06.342Z,83.72
2022-09-16T12:38:05.428Z,83.98
2022-09-16T12:43:06.537Z,87.40
2022-09-16T12:48:08.670Z,88.47
2022-09-16T12:53:07.801Z,90.39
2022-09-16T12:58:09.912Z,90.24
2022-09-16T13:03:09.232Z,90.53
2022-09-16T13:08:11.404Z,89.83
2022-09-16T13:13:12.518Z,87.96
2022-09-16T13:18:12.642Z,86.45
2022-09-16T13:23:11.767Z,86.95
2022-09-16T13:28:14.054Z,87.24
2022-09-16T13:33:14.327Z,89.26
2022-09-16T13:38:13.446Z,88.13
2022-09-16T13:43:14.554Z,87.79
2022-09-16T13:48:15.788Z,89.70
2022-09-16T13:53:22.558Z,93.38
2022-09-16T13:58:17.646Z,94.70
2022-09-16T14:03:19.040Z,93.93
2022-09-16T14:08:20.299Z,92.10
2022-09-16T14:13:21.394Z,93.22
2022-09-16T14:18:23.619Z,93.91
2022-09-16T14:23:22.697Z,95.43
2022-09-16T14:28:23.919Z,95.43
2022-09-16T14:33:25.023Z,95.59
2022-09-16T14:38:44.842Z,95.38
2022-09-16T14:43:27.060Z,94.67
2022-09-16T14:48:27.798Z,96.14
2022-09-16T14:53:35.403Z,97.92
2022-09-16T14:58:31.968Z,94.51
2022-09-16T15:03:29.081Z,96.14
2022-09-16T15:08:30.169Z,96.48
2022-09-16T15:13:31.259Z,96.79
2022-09-16T15:18:32.626Z,96.18
2022-09-16T15:23:34.732Z,97.44
2022-09-16T15:28:34.909Z,99.99
2022-09-16T15:33:35.023Z,97.04
2022-09-16T15:38:35.127Z,98.11
2022-09-16T15:43:34.342Z,97.24
2022-09-16T15:48:35.620Z,97.75
2022-09-16T15:53:37.744Z,96.12
2022-09-16T15:58:36.842Z,97.34
2022-09-16T16:03:37.954Z,98.26
2022-09-16T16:08:39.045Z,98.32
2022-09-16T16:13:40.253Z,97.30
2022-09-16T16:18:42.343Z,98.72
2022-09-16T16:23:41.600Z,98.52
2022-09-16T16:28:42.751Z,97.50
2022-09-16T16:33:44.635Z,97.50
2022-09-16T16:38:43.927Z,98.46
2022-09-16T16:43:46.020Z,97.09
2022-09-16T16:48:45.133Z,95.17
2022-09-16T16:53:47.313Z,95.72
2022-09-16T16:58:48.440Z,96.73
2022-09-16T17:03:48.557Z,97.34
2022-09-16T17:08:48.664Z,97.04
2022-09-16T17:13:49.848Z,99.11
2022-09-16T17:18:49.036Z,99.73
2022-09-16T17:23:50.208Z,99.48
2022-09-16T17:28:52.299Z,99.78
2022-09-16T17:33:51.421Z,98.97
2022-09-16T17:38:52.541Z,99.22
2022-09-16T17:43:53.640Z,98.91
2022-09-16T17:48:55.740Z,99.99
2022-09-16T17:53:54.837Z,99.99
2022-09-16T17:58:57.996Z,99.99
2022-09-16T18:03:58.301Z,99.99
2022-09-16T18:08:59.513Z,99.99
2022-09-16T18:13:58.622Z,99.99
2022-09-16T18:18:59.948Z,99.99
2022-09-16T18:24:01.121Z,99.99
2022-09-16T18:29:11.204Z,99.99
2022-09-16T18:34:02.229Z,99.99
2022-09-16T18:39:03.457Z,99.99
2022-09-16T18:44:04.662Z,99.99
2022-09-16T18:49:09.692Z,99.99
2022-09-16T18:54:06.780Z,99.99
2022-09-16T18:59:24.618Z,99.99
2022-09-16T19:04:08.935Z,99.99
2022-09-16T19:09:10.064Z,99.99
2022-09-16T19:14:11.472Z,99.99
2022-09-16T19:19:12.568Z,99.99
2022-09-16T19:24:14.659Z,99.99
2022-09-16T19:29:13.776Z,99.99
2022-09-16T19:34:15.874Z,99.99
2022-09-16T19:39:14.996Z,99.99
2022-09-16T19:44:16.101Z,99.99
2022-09-16T19:49:17.205Z,99.99
2022-09-16T19:54:18.323Z,99.99
2022-09-16T19:59:20.463Z,99.99
2022-09-16T20:04:20.019Z,99.99
2022-09-16T20:09:19.146Z,99.99
2022-09-16T20:14:21.251Z,99.99
2022-09-16T20:19:21.375Z,99.99
2022-09-16T20:24:20.747Z,99.99
2022-09-16T20:29:22.874Z,99.99
2022-09-16T20:34:21.954Z,99.99
2022-09-16T20:39:23.062Z,99.99
2022-09-16T20:44:26.218Z,99.99
2022-09-16T20:49:26.340Z,99.99
2022-09-16T20:54:25.430Z,99.99
2022-09-16T20:59:26.692Z,99.99
2022-09-16T21:04:28.793Z,99.99
2022-09-16T21:09:28.023Z,99.99
2022-09-16T21:14:29.113Z,99.99
2022-09-16T21:19:30.231Z,99.49
2022-09-16T21:24:31.358Z,98.11
2022-09-16T21:29:33.448Z,96.14
2022-09-16T21:34:32.553Z,97.00
2022-09-16T21:39:37.566Z,96.15
2022-09-16T21:44:34.655Z,95.74
2022-09-16T21:49:37.790Z,95.89
2022-09-16T21:54:36.984Z,93.69
2022-09-16T21:59:38.123Z,97.16
2022-09-16T22:04:39.238Z,99.95
2022-09-16T22:09:40.367Z,99.99
2022-09-16T22:14:42.530Z,99.99
2022-09-16T22:19:41.633Z,99.99
2022-09-16T22:24:43.771Z,99.99
2022-09-16T22:29:42.871Z,99.99
2022-09-16T22:34:43.949Z,99.99
2022-09-16T22:39:46.122Z,99.99
2022-09-16T22:44:45.765Z,99.99
2022-09-16T22:49:44.817Z,99.99
2022-09-16T22:54:45.927Z,99.99
2022-09-16T22:59:48.052Z,99.99
2022-09-16T23:04:47.140Z,99.99
2022-09-16T23:09:48.336Z,99.99
2022-09-16T23:14:49.441Z,99.99
2022-09-16T23:19:50.569Z,99.99
2022-09-16T23:24:51.851Z,97.64
2022-09-16T23:29:53.967Z,97.24
2022-09-16T23:34:53.220Z,99.99
2022-09-16T23:39:54.414Z,99.63
2022-09-16T23:44:55.569Z,95.28
2022-09-16T23:49:56.694Z,99.62
2022-09-16T23:54:57.851Z,99.99
2022-09-16T23:59:59.144Z,99.99
